createdAt,value
2019-01-14T00:02:06.912Z,4.40
2019-01-14T00:04:36.380Z,4.30
2019-01-14T00:07:11.597Z,4.30
2019-01-14T00:09:41.032Z,4.20
2019-01-14T00:12:10.490Z,4.20
2019-01-14T00:14:42.600Z,4.10
2019-01-14T00:17:15.134Z,4.00
2019-01-14T00:19:48.729Z,4.00
2019-01-14T00:22:19.658Z,4.00
2019-01-14T00:24:49.122Z,4.00
2019-01-14T00:27:18.663Z,3.90
2019-01-14T00:29:48.268Z,3.90
2019-01-14T00:32:22.075Z,3.90
2019-01-14T00:34:54.385Z,3.90
2019-01-14T00:37:23.839Z,3.90
2019-01-14T00:39:53.392Z,3.80
2019-01-14T00:42:22.911Z,3.80
2019-01-14T00:44:54.658Z,3.80
2019-01-14T00:47:24.208Z,3.80
2019-01-14T00:49:58.988Z,3.80
2019-01-14T00:52:28.458Z,3.90
2019-01-14T00:54:58.185Z,3.90
2019-01-14T00:57:31.902Z,3.90
2019-01-14T01:00:01.363Z,3.80
2019-01-14T01:02:30.996Z,3.80
2019-01-14T01:05:04.082Z,3.80
2019-01-14T01:07:33.592Z,3.80
2019-01-14T01:10:03.034Z,3.90
2019-01-14T01:12:37.787Z,3.80
2019-01-14T01:15:13.876Z,3.80
2019-01-14T01:17:43.368Z,3.70
2019-01-14T01:20:22.049Z,3.70
2019-01-14T01:22:54.884Z,3.70
2019-01-14T01:25:26.668Z,3.70
2019-01-14T01:27:56.310Z,3.70
2019-01-14T01:30:25.781Z,3.70
2019-01-14T01:32:55.218Z,3.70
2019-01-14T01:35:24.549Z,3.70
2019-01-14T01:37:54.010Z,3.80
2019-01-14T01:40:29.218Z,3.80
2019-01-14T01:42:58.974Z,3.70
2019-01-14T01:45:28.341Z,3.60
2019-01-14T01:48:00.603Z,3.50
2019-01-14T01:50:30.237Z,3.60
2019-01-14T01:53:02.806Z,3.60
2019-01-14T01:55:32.186Z,3.60
2019-01-14T01:58:01.671Z,3.60
2019-01-14T02:00:33.891Z,3.60
2019-01-14T02:03:03.470Z,3.70
2019-01-14T02:05:35.181Z,3.70
2019-01-14T02:08:04.923Z,3.70
2019-01-14T02:10:37.572Z,3.70
2019-01-14T02:13:07.001Z,3.80
2019-01-14T02:15:39.549Z,3.90
2019-01-14T02:18:11.850Z,3.90
2019-01-14T02:20:44.246Z,3.90
2019-01-14T02:23:13.854Z,3.90
2019-01-14T02:25:46.207Z,3.90
2019-01-14T02:28:15.877Z,3.90
2019-01-14T02:30:45.405Z,3.90
2019-01-14T02:33:14.865Z,3.90
2019-01-14T02:35:47.705Z,3.90
2019-01-14T02:38:17.126Z,3.90
2019-01-14T02:40:46.691Z,3.90
2019-01-14T02:43:23.313Z,3.90
2019-01-14T02:45:55.086Z,3.90
2019-01-14T02:48:27.190Z,3.90
2019-01-14T02:50:56.825Z,3.90
2019-01-14T02:53:26.336Z,3.90
2019-01-14T02:55:55.953Z,3.90
2019-01-14T02:58:27.555Z,3.90
2019-01-14T03:00:57.127Z,3.90
2019-01-14T03:03:28.744Z,3.90
2019-01-14T03:05:58.375Z,3.90
2019-01-14T03:08:27.701Z,3.90
2019-01-14T03:11:01.863Z,3.90
2019-01-14T03:13:34.466Z,4.00
2019-01-14T03:16:04.142Z,3.90
2019-01-14T03:18:33.753Z,3.90
2019-01-14T03:21:05.324Z,3.90
2019-01-14T03:23:34.736Z,3.90
2019-01-14T03:26:07.393Z,3.90
2019-01-14T03:28:42.685Z,4.00
2019-01-14T03:31:12.254Z,3.90
2019-01-14T03:33:43.624Z,3.90
2019-01-14T03:36:13.961Z,3.90
2019-01-14T03:38:43.436Z,3.90
2019-01-14T03:41:13.015Z,3.90
2019-01-14T03:43:46.242Z,3.90
2019-01-14T03:46:18.751Z,3.90
2019-01-14T03:48:48.125Z,3.90
2019-01-14T03:51:21.909Z,3.90
2019-01-14T03:53:58.044Z,3.90
2019-01-14T03:56:27.770Z,3.90
2019-01-14T03:59:01.425Z,3.90
2019-01-14T04:01:32.688Z,3.90
2019-01-14T04:04:08.849Z,3.90
2019-01-14T04:06:38.438Z,3.90
2019-01-14T04:09:12.190Z,3.90
2019-01-14T04:11:44.461Z,3.90
2019-01-14T04:14:13.863Z,3.90
2019-01-14T04:16:43.352Z,3.90
2019-01-14T04:19:12.874Z,3.80
2019-01-14T04:21:42.382Z,3.90
2019-01-14T04:24:11.936Z,3.80
2019-01-14T04:26:42.970Z,3.80
2019-01-14T04:29:14.103Z,3.80
2019-01-14T04:31:43.628Z,3.80
2019-01-14T04:34:13.153Z,3.80
2019-01-14T04:36:42.684Z,3.80
2019-01-14T04:39:17.359Z,3.80
2019-01-14T04:41:48.554Z,3.80
2019-01-14T04:44:18.044Z,3.80
2019-01-14T04:46:47.617Z,3.80
2019-01-14T04:49:20.127Z,3.80
2019-01-14T04:51:49.725Z,3.80
2019-01-14T04:54:19.384Z,3.70
2019-01-14T04:56:49.021Z,3.80
2019-01-14T04:59:26.031Z,3.80
2019-01-14T05:01:58.079Z,3.80
2019-01-14T05:04:27.765Z,3.80
2019-01-14T05:07:03.864Z,3.90
2019-01-14T05:09:33.344Z,3.90
2019-01-14T05:12:04.640Z,3.90
2019-01-14T05:14:40.473Z,3.90
2019-01-14T05:17:12.795Z,3.90
2019-01-14T05:19:43.411Z,3.90
2019-01-14T05:22:14.515Z,3.90
2019-01-14T05:24:45.085Z,3.80
2019-01-14T05:27:15.718Z,3.90
2019-01-14T05:29:48.325Z,3.90
2019-01-14T05:32:17.974Z,3.90
2019-01-14T05:34:47.599Z,3.90
2019-01-14T05:37:17.075Z,3.90
2019-01-14T05:39:46.498Z,3.90
2019-01-14T05:42:18.825Z,3.90
2019-01-14T05:44:48.370Z,3.80
2019-01-14T05:47:17.762Z,3.80
2019-01-14T05:49:50.203Z,3.80
2019-01-14T05:52:19.668Z,3.90
2019-01-14T05:54:49.126Z,3.90
2019-01-14T05:57:18.712Z,3.90
2019-01-14T05:59:50.670Z,3.90
2019-01-14T06:02:20.228Z,4.00
2019-01-14T06:04:51.582Z,4.00
2019-01-14T06:07:20.997Z,4.00
2019-01-14T06:09:52.351Z,4.00
2019-01-14T06:12:21.904Z,4.00
2019-01-14T06:14:51.502Z,3.90
2019-01-14T06:17:22.211Z,3.90
2019-01-14T06:19:54.816Z,4.00
2019-01-14T06:22:25.551Z,3.90
2019-01-14T06:24:57.451Z,3.80
2019-01-14T06:27:27.195Z,3.80
2019-01-14T06:29:56.703Z,3.70
2019-01-14T06:32:31.366Z,3.60
2019-01-14T06:35:02.856Z,3.60
2019-01-14T06:37:34.842Z,3.60
2019-01-14T06:40:12.621Z,3.50
2019-01-14T06:42:50.368Z,3.40
2019-01-14T06:45:23.656Z,3.40
2019-01-14T06:47:53.143Z,3.40
2019-01-14T06:50:22.702Z,3.40
2019-01-14T06:52:52.313Z,3.30
2019-01-14T06:55:22.266Z,3.30
2019-01-14T06:57:51.772Z,3.30
2019-01-14T07:00:28.414Z,3.30
2019-01-14T07:02:57.983Z,3.30
2019-01-14T07:05:27.475Z,3.30
2019-01-14T07:07:59.910Z,3.40
2019-01-14T07:10:30.410Z,3.40
2019-01-14T07:13:00.126Z,3.40
2019-01-14T07:15:29.833Z,3.40
2019-01-14T07:17:59.487Z,3.30
2019-01-14T07:20:30.619Z,3.30
2019-01-14T07:22:59.919Z,3.30
2019-01-14T07:25:28.924Z,3.20
2019-01-14T07:27:58.059Z,3.20
2019-01-14T07:30:27.090Z,3.20
2019-01-14T07:32:56.042Z,3.20
2019-01-14T07:35:25.138Z,3.10
2019-01-14T07:37:54.133Z,2.80
2019-01-14T07:40:23.136Z,2.50
2019-01-14T07:42:52.142Z,2.20
2019-01-14T07:45:21.416Z,2.10
2019-01-14T07:47:50.402Z,2.10
2019-01-14T07:50:19.690Z,2.00
2019-01-14T07:52:49.055Z,2.00
2019-01-14T07:55:18.324Z,2.10
2019-01-14T07:57:47.341Z,2.10
2019-01-14T08:00:22.154Z,2.10
2019-01-14T08:02:51.141Z,2.10
2019-01-14T08:05:20.437Z,2.10
2019-01-14T08:07:49.674Z,2.10
2019-01-14T08:10:18.779Z,2.20
2019-01-14T08:12:47.797Z,2.20
2019-01-14T08:15:19.061Z,2.30
2019-01-14T08:17:48.046Z,2.40
2019-01-14T08:20:17.091Z,2.50
2019-01-14T08:22:46.089Z,2.50
2019-01-14T08:25:15.471Z,2.60
2019-01-14T08:27:44.534Z,2.60
2019-01-14T08:30:19.481Z,2.70
2019-01-14T08:32:48.491Z,2.70
2019-01-14T08:35:17.831Z,2.80
2019-01-14T08:37:46.865Z,2.80
2019-01-14T08:40:16.782Z,2.80
2019-01-14T08:42:45.783Z,2.80
2019-01-14T08:45:14.786Z,2.90
2019-01-14T08:47:43.818Z,2.90
2019-01-14T08:50:17.989Z,2.90
2019-01-14T08:52:46.969Z,2.90
2019-01-14T08:55:16.387Z,2.90
2019-01-14T08:57:54.219Z,2.90
2019-01-14T09:00:22.429Z,2.90
2019-01-14T09:02:51.461Z,2.90
2019-01-14T09:05:20.841Z,2.90
2019-01-14T09:07:50.124Z,3.00
2019-01-14T09:10:24.325Z,3.10
2019-01-14T09:12:53.341Z,3.10
2019-01-14T09:15:22.363Z,3.10
2019-01-14T09:17:51.703Z,3.10
2019-01-14T09:20:22.878Z,3.20
2019-01-14T09:22:52.002Z,3.10
2019-01-14T09:25:20.923Z,3.10
2019-01-14T09:27:50.265Z,3.00
2019-01-14T09:30:26.578Z,3.00
2019-01-14T09:32:55.622Z,3.00
2019-01-14T09:35:24.909Z,3.00
2019-01-14T09:37:53.906Z,3.00
2019-01-14T09:40:24.582Z,3.00
2019-01-14T09:42:53.521Z,3.00
2019-01-14T09:45:22.522Z,3.10
2019-01-14T09:47:51.522Z,3.10
2019-01-14T09:50:20.541Z,3.10
2019-01-14T09:52:49.826Z,3.20
2019-01-14T09:55:19.696Z,3.20
2019-01-14T09:57:48.978Z,3.30
2019-01-14T10:00:18.010Z,3.30
2019-01-14T10:02:47.172Z,3.40
2019-01-14T10:05:17.827Z,3.50
2019-01-14T10:07:47.214Z,3.70
2019-01-14T10:10:17.591Z,3.80
2019-01-14T10:12:46.663Z,4.00
2019-01-14T10:15:21.276Z,4.30
2019-01-14T10:17:55.266Z,4.40
2019-01-14T10:20:24.311Z,4.60
2019-01-14T10:22:53.403Z,4.80
2019-01-14T10:25:23.964Z,4.90
2019-01-14T10:27:52.993Z,4.80
2019-01-14T10:30:22.234Z,4.90
2019-01-14T10:32:51.246Z,5.00
2019-01-14T10:35:20.531Z,5.00
2019-01-14T10:37:50.027Z,5.00
2019-01-14T10:40:20.819Z,5.10
2019-01-14T10:42:50.263Z,5.20
2019-01-14T10:45:26.391Z,5.30
2019-01-14T10:48:08.311Z,5.20
2019-01-14T10:50:39.753Z,5.10
2019-01-14T10:53:11.500Z,5.00
2019-01-14T10:55:42.483Z,5.00
2019-01-14T10:58:15.286Z,4.90
2019-01-14T11:00:44.733Z,4.80
2019-01-14T11:03:14.359Z,4.70
2019-01-14T11:05:46.936Z,4.60
2019-01-14T11:08:17.224Z,4.50
2019-01-14T11:10:46.682Z,4.50
2019-01-14T11:13:16.277Z,4.40
2019-01-14T11:15:45.787Z,4.20
2019-01-14T11:18:17.962Z,4.20
2019-01-14T11:20:47.533Z,4.20
2019-01-14T11:23:18.394Z,4.20
2019-01-14T11:25:47.806Z,4.10
2019-01-14T11:28:17.378Z,4.10
2019-01-14T11:30:48.107Z,4.00
2019-01-14T11:33:19.150Z,3.90
2019-01-14T11:35:49.560Z,3.90
2019-01-14T11:39:04.780Z,3.90
2019-01-14T11:41:29.353Z,3.90
2019-01-14T11:44:02.004Z,3.70
2019-01-14T11:46:31.515Z,3.80
2019-01-14T11:49:01.222Z,3.70
2019-01-14T11:51:30.657Z,3.70
2019-01-14T11:54:01.201Z,3.70
2019-01-14T11:56:30.730Z,3.60
2019-01-14T11:59:04.280Z,3.60
2019-01-14T12:01:37.301Z,3.60
2019-01-14T12:04:06.826Z,3.60
2019-01-14T12:06:36.478Z,3.70
2019-01-14T12:09:12.423Z,3.70
2019-01-14T12:11:41.995Z,3.80
2019-01-14T12:14:11.587Z,3.90
2019-01-14T12:16:43.346Z,4.00
2019-01-14T12:19:14.088Z,4.10
2019-01-14T12:21:45.420Z,4.30
2019-01-14T12:24:17.243Z,4.60
2019-01-14T12:26:49.077Z,4.60
2019-01-14T12:29:18.546Z,4.60
2019-01-14T12:31:50.482Z,4.60
2019-01-14T12:34:22.694Z,4.60
2019-01-14T12:36:52.207Z,4.60
2019-01-14T12:39:21.821Z,4.70
2019-01-14T12:41:53.948Z,4.60
2019-01-14T12:44:25.509Z,4.60
2019-01-14T12:46:55.056Z,4.50
2019-01-14T12:49:26.244Z,4.40
2019-01-14T12:51:55.820Z,4.20
2019-01-14T12:54:25.132Z,4.10
2019-01-14T12:56:56.425Z,3.90
2019-01-14T12:59:25.789Z,3.80
2019-01-14T13:02:00.165Z,3.60
2019-01-14T13:04:30.814Z,3.40
2019-01-14T13:07:02.531Z,3.20
2019-01-14T13:09:32.149Z,3.20
2019-01-14T13:12:01.459Z,3.10
2019-01-14T13:14:32.431Z,3.10
2019-01-14T13:17:01.885Z,3.00
2019-01-14T13:19:31.343Z,3.00
2019-01-14T13:22:00.980Z,2.90
2019-01-14T13:24:30.425Z,2.80
2019-01-14T13:27:00.004Z,2.70
2019-01-14T13:29:31.274Z,2.60
2019-01-14T13:32:16.275Z,2.60
2019-01-14T13:35:22.495Z,2.50
2019-01-14T13:37:46.986Z,2.50
2019-01-14T13:40:16.246Z,2.50
2019-01-14T13:42:45.312Z,2.50
2019-01-14T13:45:24.060Z,2.50
2019-01-14T13:47:53.401Z,2.50
2019-01-14T13:50:24.309Z,2.50
2019-01-14T13:52:53.611Z,2.50
2019-01-14T13:55:22.843Z,2.60
2019-01-14T13:57:52.442Z,2.50
2019-01-14T14:00:23.826Z,2.50
2019-01-14T14:02:53.085Z,2.60
2019-01-14T14:05:22.103Z,2.50
2019-01-14T14:07:51.141Z,2.50
2019-01-14T14:10:22.695Z,2.50
2019-01-14T14:12:51.703Z,2.50
2019-01-14T14:15:21.147Z,2.60
2019-01-14T14:17:50.162Z,2.60
2019-01-14T14:20:19.166Z,2.60
2019-01-14T14:22:48.245Z,2.60
2019-01-14T14:25:17.257Z,2.60
2019-01-14T14:27:46.690Z,2.60
2019-01-14T14:30:38.882Z,2.50
2019-01-14T14:33:07.992Z,2.50
2019-01-14T14:35:37.070Z,2.50
2019-01-14T14:38:07.762Z,2.50
2019-01-14T14:40:38.916Z,2.50
2019-01-14T14:43:09.825Z,2.50
2019-01-14T14:45:45.535Z,2.50
2019-01-14T14:48:15.934Z,2.50
2019-01-14T14:50:48.470Z,2.50
2019-01-14T14:53:20.519Z,2.50
2019-01-14T14:55:51.071Z,2.60
2019-01-14T14:58:22.674Z,2.60
2019-01-14T15:00:52.268Z,2.70
2019-01-14T15:03:21.958Z,2.70
2019-01-14T15:05:57.181Z,2.70
2019-01-14T15:08:26.766Z,2.60
2019-01-14T15:11:06.856Z,2.70
2019-01-14T15:13:38.605Z,2.70
2019-01-14T15:16:07.941Z,2.70
2019-01-14T15:18:40.420Z,2.60
2019-01-14T15:21:09.895Z,2.60
2019-01-14T15:23:39.479Z,2.60
2019-01-14T15:26:08.866Z,2.50
2019-01-14T15:28:38.345Z,2.50
2019-01-14T15:31:07.949Z,2.40
2019-01-14T15:33:37.374Z,2.30
2019-01-14T15:36:06.616Z,2.20
2019-01-14T15:38:41.312Z,2.10
2019-01-14T15:41:14.195Z,2.10
2019-01-14T15:43:43.771Z,2.00
2019-01-14T15:46:13.235Z,1.90
2019-01-14T15:48:47.855Z,1.90
2019-01-14T15:51:17.416Z,1.80
2019-01-14T15:53:46.864Z,1.80
2019-01-14T15:56:19.500Z,1.70
2019-01-14T15:58:50.221Z,1.70
2019-01-14T16:01:20.633Z,1.70
2019-01-14T16:03:50.360Z,1.60
2019-01-14T16:06:19.848Z,1.60
2019-01-14T16:08:49.195Z,1.50
2019-01-14T16:11:20.861Z,1.40
2019-01-14T16:13:50.321Z,1.40
2019-01-14T16:16:23.165Z,1.30
2019-01-14T16:18:54.042Z,1.30
2019-01-14T16:21:23.718Z,1.20
2019-01-14T16:23:53.483Z,1.20
2019-01-14T16:26:22.982Z,1.20
2019-01-14T16:28:56.688Z,1.10
2019-01-14T16:31:26.935Z,1.00
2019-01-14T16:33:56.325Z,1.10
2019-01-14T16:36:31.302Z,1.10
2019-01-14T16:39:04.913Z,1.00
2019-01-14T16:41:34.538Z,1.10
2019-01-14T16:44:07.051Z,1.10
2019-01-14T16:46:38.864Z,1.10
2019-01-14T16:49:08.287Z,1.20
2019-01-14T16:51:39.495Z,1.20
2019-01-14T16:54:13.325Z,1.20
2019-01-14T16:56:45.303Z,1.30
2019-01-14T16:59:17.318Z,1.30
2019-01-14T17:01:46.920Z,1.30
2019-01-14T17:04:19.410Z,1.30
2019-01-14T17:06:48.853Z,1.30
2019-01-14T17:09:18.326Z,1.30
2019-01-14T17:11:53.239Z,1.30
2019-01-14T17:14:22.798Z,1.30
2019-01-14T17:16:54.356Z,1.30
2019-01-14T17:19:24.306Z,1.30
2019-01-14T17:21:56.287Z,1.30
2019-01-14T17:24:28.427Z,1.20
2019-01-14T17:26:57.820Z,1.20
2019-01-14T17:29:27.327Z,1.20
2019-01-14T17:31:56.803Z,1.20
2019-01-14T17:34:26.279Z,1.10
2019-01-14T17:36:55.891Z,1.10
2019-01-14T17:39:28.432Z,1.10
2019-01-14T17:41:59.570Z,1.00
2019-01-14T17:44:28.972Z,1.10
2019-01-14T17:46:58.557Z,1.10
2019-01-14T17:49:30.697Z,1.10
2019-01-14T17:52:00.216Z,1.00
2019-01-14T17:54:30.185Z,1.00
2019-01-14T17:57:00.817Z,0.90
2019-01-14T17:59:32.264Z,1.00
2019-01-14T18:02:10.936Z,0.90
2019-01-14T18:04:43.235Z,0.90
2019-01-14T18:07:12.788Z,0.90
2019-01-14T18:09:46.541Z,0.90
2019-01-14T18:12:18.125Z,1.00
2019-01-14T18:14:47.723Z,1.00
2019-01-14T18:17:17.247Z,1.00
2019-01-14T18:19:46.807Z,1.00
2019-01-14T18:22:19.045Z,1.00
2019-01-14T18:24:52.019Z,1.10
2019-01-14T18:27:21.430Z,1.10
2019-01-14T18:29:51.183Z,1.20
2019-01-14T18:32:20.907Z,1.20
2019-01-14T18:34:50.385Z,1.20
2019-01-14T18:37:19.974Z,1.20
2019-01-14T18:39:49.511Z,1.20
2019-01-14T18:42:19.077Z,1.20
2019-01-14T18:44:48.445Z,1.20
2019-01-14T18:47:17.684Z,1.20
2019-01-14T18:49:47.153Z,1.10
2019-01-14T18:52:17.031Z,1.10
2019-01-14T18:54:46.388Z,1.10
2019-01-14T18:57:15.702Z,1.10
2019-01-14T18:59:45.432Z,1.20
2019-01-14T19:02:14.889Z,1.20
2019-01-14T19:04:44.518Z,1.20
2019-01-14T19:07:16.250Z,1.20
2019-01-14T19:09:46.079Z,1.10
2019-01-14T19:12:15.594Z,1.10
2019-01-14T19:14:45.076Z,1.10
2019-01-14T19:17:14.652Z,1.10
2019-01-14T19:19:44.262Z,1.20
2019-01-14T19:22:13.844Z,1.20
2019-01-14T19:24:45.214Z,1.20
2019-01-14T19:27:17.445Z,1.30
2019-01-14T19:29:46.999Z,1.30
2019-01-14T19:32:19.303Z,1.30
2019-01-14T19:34:48.913Z,1.30
2019-01-14T19:37:21.337Z,1.30
2019-01-14T19:39:53.945Z,1.30
2019-01-14T19:42:23.555Z,1.30
2019-01-14T19:44:53.005Z,1.20
2019-01-14T19:47:23.924Z,1.10
2019-01-14T19:49:53.414Z,1.00
2019-01-14T19:52:23.065Z,0.80
2019-01-14T19:54:52.646Z,0.70
2019-01-14T19:57:22.355Z,0.60
2019-01-14T19:59:51.822Z,0.50
2019-01-14T20:02:27.519Z,0.50
2019-01-14T20:04:58.168Z,0.40
2019-01-14T20:07:27.740Z,0.30
2019-01-14T20:09:57.375Z,0.30
2019-01-14T20:12:28.246Z,0.20
2019-01-14T20:14:57.855Z,0.20
2019-01-14T20:17:30.760Z,0.10
2019-01-14T20:20:03.047Z,0.00
2019-01-14T20:22:32.540Z,-0.10
2019-01-14T20:25:02.111Z,-0.20
2019-01-14T20:27:33.199Z,-0.30
2019-01-14T20:33:48.032Z,-0.20
2019-01-14T20:36:17.656Z,-0.20
2019-01-14T20:38:47.267Z,-0.20
2019-01-14T20:41:18.682Z,-0.10
2019-01-14T20:43:50.689Z,-0.10
2019-01-14T20:46:20.200Z,0.00
2019-01-14T20:48:52.921Z,0.00
2019-01-14T20:51:22.543Z,0.00
2019-01-14T20:53:52.025Z,0.00
2019-01-14T20:56:21.593Z,0.00
2019-01-14T20:58:50.979Z,0.00
2019-01-14T21:01:20.707Z,0.00
2019-01-14T21:03:50.179Z,0.10
2019-01-14T21:06:19.696Z,0.10
2019-01-14T21:08:50.336Z,0.10
2019-01-14T21:11:23.871Z,0.10
2019-01-14T21:13:51.037Z,0.10
2019-01-14T21:16:20.612Z,0.10
2019-01-14T21:18:50.118Z,0.10
2019-01-14T21:21:21.764Z,0.10
2019-01-14T21:23:53.839Z,0.00
2019-01-14T21:26:24.357Z,-0.10
2019-01-14T21:28:53.771Z,-0.10
2019-01-14T21:31:24.943Z,-0.20
2019-01-14T21:33:54.481Z,-0.20
2019-01-14T21:36:23.865Z,-0.20
2019-01-14T21:38:53.260Z,-0.10
2019-01-14T21:41:23.318Z,-0.10
2019-01-14T21:43:52.683Z,-0.10
2019-01-14T21:46:22.083Z,0.00
2019-01-14T21:48:51.589Z,0.10
2019-01-14T21:51:21.042Z,0.10
2019-01-14T21:53:50.747Z,0.10
2019-01-14T21:56:20.263Z,0.10
2019-01-14T21:58:49.665Z,0.10
2019-01-14T22:01:19.430Z,0.20
2019-01-14T22:03:49.048Z,0.20
2019-01-14T22:06:18.532Z,0.20
2019-01-14T22:08:54.324Z,0.20
2019-01-14T22:11:27.355Z,0.20
2019-01-14T22:13:56.762Z,0.20
2019-01-14T22:16:26.387Z,0.20
2019-01-14T22:18:58.002Z,0.10
2019-01-14T22:21:31.608Z,0.10
2019-01-14T22:24:01.072Z,0.00
2019-01-14T22:26:30.599Z,0.00
2019-01-14T22:28:59.937Z,0.00
2019-01-14T22:31:29.384Z,-0.10
2019-01-14T22:34:05.729Z,-0.20
2019-01-14T22:36:37.288Z,-0.20
2019-01-14T22:39:08.253Z,-0.20
2019-01-14T22:41:37.816Z,-0.20
2019-01-14T22:44:11.599Z,-0.10
2019-01-14T22:46:41.221Z,-0.10
2019-01-14T22:49:13.613Z,0.00
2019-01-14T22:51:43.102Z,0.00
2019-01-14T22:54:12.613Z,0.00
2019-01-14T22:56:51.813Z,0.10
2019-01-14T22:59:23.692Z,0.10
2019-01-14T23:01:56.874Z,0.10
2019-01-14T23:04:29.351Z,0.10
2019-01-14T23:06:59.937Z,0.10
2019-01-14T23:09:29.431Z,0.10
2019-01-14T23:12:02.287Z,0.00
2019-01-14T23:14:32.871Z,-0.10
2019-01-14T23:17:04.691Z,-0.10
2019-01-14T23:19:37.307Z,-0.10
2019-01-14T23:22:08.022Z,-0.10
2019-01-14T23:24:39.978Z,-0.10
2019-01-14T23:27:11.754Z,-0.10
2019-01-14T23:29:42.598Z,-0.10
2019-01-14T23:32:14.188Z,-0.10
2019-01-14T23:34:46.582Z,-0.10
2019-01-14T23:37:15.939Z,0.00
2019-01-14T23:39:45.390Z,0.00
2019-01-14T23:42:18.182Z,0.10
2019-01-14T23:44:48.693Z,0.10
2019-01-14T23:47:22.410Z,0.10
2019-01-14T23:49:51.852Z,0.20
2019-01-14T23:52:26.496Z,0.20
2019-01-14T23:54:57.068Z,0.20
2019-01-14T23:57:26.532Z,0.10
2019-01-14T23:59:55.994Z,0.10
